sensor_id;sensor_type;location;lat;lon;timestamp;P1;durP1;ratioP1;P2;durP2;ratioP2
78716;SDS011;68045;50.042;14.432;2023-08-30T00:03:58;4.47;;;2.78;;
78716;SDS011;68045;50.042;14.432;2023-08-30T00:07:59;4.68;;;2.70;;
78716;SDS011;68045;50.042;14.432;2023-08-30T00:11:59;3.70;;;2.50;;
78716;SDS011;68045;50.042;14.432;2023-08-30T00:16:00;3.33;;;2.40;;
78716;SDS011;68045;50.042;14.432;2023-08-30T00:20:03;4.88;;;2.80;;
78716;SDS011;68045;50.042;14.432;2023-08-30T00:24:04;5.93;;;2.80;;
78716;SDS011;68045;50.042;14.432;2023-08-30T00:28:06;4.03;;;2.97;;
78716;SDS011;68045;50.042;14.432;2023-08-30T00:32:08;4.38;;;2.80;;
78716;SDS011;68045;50.042;14.432;2023-08-30T00:36:09;5.90;;;2.72;;
78716;SDS011;68045;50.042;14.432;2023-08-30T00:40:11;3.22;;;2.40;;
78716;SDS011;68045;50.042;14.432;2023-08-30T00:44:11;3.53;;;2.42;;
78716;SDS011;68045;50.042;14.432;2023-08-30T00:48:12;3.72;;;2.30;;
78716;SDS011;68045;50.042;14.432;2023-08-30T00:52:13;4.60;;;2.50;;
78716;SDS011;68045;50.042;14.432;2023-08-30T00:56:14;3.60;;;2.55;;
78716;SDS011;68045;50.042;14.432;2023-08-30T01:00:16;4.43;;;2.42;;
78716;SDS011;68045;50.042;14.432;2023-08-30T01:04:17;4.18;;;2.40;;
78716;SDS011;68045;50.042;14.432;2023-08-30T01:08:19;3.50;;;2.42;;
78716;SDS011;68045;50.042;14.432;2023-08-30T01:12:21;3.22;;;2.38;;
78716;SDS011;68045;50.042;14.432;2023-08-30T01:16:24;4.18;;;2.22;;
78716;SDS011;68045;50.042;14.432;2023-08-30T01:20:27;4.07;;;2.30;;
78716;SDS011;68045;50.042;14.432;2023-08-30T01:24:44;4.75;;;2.30;;
78716;SDS011;68045;50.042;14.432;2023-08-30T01:28:54;3.95;;;2.40;;
78716;SDS011;68045;50.042;14.432;2023-08-30T01:33:00;4.10;;;2.50;;
78716;SDS011;68045;50.042;14.432;2023-08-30T01:37:04;5.78;;;2.88;;
78716;SDS011;68045;50.042;14.432;2023-08-30T01:41:08;3.88;;;2.60;;
78716;SDS011;68045;50.042;14.432;2023-08-30T01:45:11;4.82;;;3.47;;
78716;SDS011;68045;50.042;14.432;2023-08-30T01:49:14;3.90;;;2.60;;
78716;SDS011;68045;50.042;14.432;2023-08-30T01:53:15;4.40;;;2.95;;
78716;SDS011;68045;50.042;14.432;2023-08-30T01:57:17;4.05;;;2.50;;
78716;SDS011;68045;50.042;14.432;2023-08-30T02:01:17;3.45;;;2.15;;
78716;SDS011;68045;50.042;14.432;2023-08-30T02:05:19;3.70;;;2.13;;
78716;SDS011;68045;50.042;14.432;2023-08-30T02:09:24;2.35;;;1.67;;
78716;SDS011;68045;50.042;14.432;2023-08-30T02:13:29;3.00;;;1.70;;
78716;SDS011;68045;50.042;14.432;2023-08-30T02:17:31;1.90;;;1.40;;
78716;SDS011;68045;50.042;14.432;2023-08-30T02:21:32;3.47;;;1.63;;
78716;SDS011;68045;50.042;14.432;2023-08-30T02:25:33;2.75;;;1.40;;
78716;SDS011;68045;50.042;14.432;2023-08-30T02:29:34;2.45;;;1.17;;
78716;SDS011;68045;50.042;14.432;2023-08-30T02:33:35;2.30;;;1.50;;
78716;SDS011;68045;50.042;14.432;2023-08-30T02:37:38;1.83;;;1.25;;
78716;SDS011;68045;50.042;14.432;2023-08-30T02:41:40;2.38;;;1.30;;
78716;SDS011;68045;50.042;14.432;2023-08-30T02:45:41;2.22;;;1.58;;
78716;SDS011;68045;50.042;14.432;2023-08-30T02:49:42;4.30;;;1.60;;
78716;SDS011;68045;50.042;14.432;2023-08-30T02:53:43;1.98;;;1.40;;
78716;SDS011;68045;50.042;14.432;2023-08-30T02:57:44;1.52;;;1.23;;
78716;SDS011;68045;50.042;14.432;2023-08-30T03:01:44;2.15;;;1.42;;
78716;SDS011;68045;50.042;14.432;2023-08-30T03:05:48;2.88;;;1.75;;
78716;SDS011;68045;50.042;14.432;2023-08-30T03:09:52;2.10;;;1.45;;
78716;SDS011;68045;50.042;14.432;2023-08-30T03:13:54;2.88;;;1.50;;
78716;SDS011;68045;50.042;14.432;2023-08-30T03:17:55;3.58;;;1.60;;
78716;SDS011;68045;50.042;14.432;2023-08-30T03:21:58;2.22;;;1.52;;
78716;SDS011;68045;50.042;14.432;2023-08-30T03:26:09;4.20;;;1.73;;
78716;SDS011;68045;50.042;14.432;2023-08-30T03:30:11;2.95;;;1.80;;
78716;SDS011;68045;50.042;14.432;2023-08-30T03:34:12;3.35;;;1.67;;
78716;SDS011;68045;50.042;14.432;2023-08-30T03:38:14;3.20;;;1.73;;
78716;SDS011;68045;50.042;14.432;2023-08-30T03:42:14;3.83;;;1.95;;
78716;SDS011;68045;50.042;14.432;2023-08-30T03:46:15;2.95;;;1.88;;
78716;SDS011;68045;50.042;14.432;2023-08-30T03:50:16;3.20;;;1.92;;
78716;SDS011;68045;50.042;14.432;2023-08-30T03:54:17;2.95;;;2.05;;
78716;SDS011;68045;50.042;14.432;2023-08-30T03:58:18;3.35;;;2.00;;
78716;SDS011;68045;50.042;14.432;2023-08-30T04:02:20;5.30;;;2.38;;
78716;SDS011;68045;50.042;14.432;2023-08-30T04:06:21;4.55;;;2.72;;
78716;SDS011;68045;50.042;14.432;2023-08-30T04:10:23;3.33;;;2.30;;
78716;SDS011;68045;50.042;14.432;2023-08-30T04:14:24;3.92;;;2.17;;
78716;SDS011;68045;50.042;14.432;2023-08-30T04:18:24;3.38;;;2.08;;
78716;SDS011;68045;50.042;14.432;2023-08-30T04:22:27;3.47;;;2.20;;
78716;SDS011;68045;50.042;14.432;2023-08-30T04:26:28;3.13;;;1.95;;
78716;SDS011;68045;50.042;14.432;2023-08-30T04:30:31;3.42;;;2.10;;
78716;SDS011;68045;50.042;14.432;2023-08-30T04:34:32;3.15;;;1.98;;
78716;SDS011;68045;50.042;14.432;2023-08-30T04:38:33;2.72;;;1.67;;
78716;SDS011;68045;50.042;14.432;2023-08-30T04:42:33;4.00;;;2.33;;
78716;SDS011;68045;50.042;14.432;2023-08-30T04:46:34;2.63;;;1.83;;
78716;SDS011;68045;50.042;14.432;2023-08-30T04:50:35;3.20;;;1.88;;
78716;SDS011;68045;50.042;14.432;2023-08-30T04:54:36;3.20;;;2.15;;
78716;SDS011;68045;50.042;14.432;2023-08-30T04:58:37;2.60;;;1.80;;
78716;SDS011;68045;50.042;14.432;2023-08-30T05:02:38;4.22;;;2.25;;
78716;SDS011;68045;50.042;14.432;2023-08-30T05:06:43;5.28;;;1.92;;
78716;SDS011;68045;50.042;14.432;2023-08-30T05:10:44;3.45;;;2.05;;
78716;SDS011;68045;50.042;14.432;2023-08-30T05:14:47;5.10;;;2.20;;
78716;SDS011;68045;50.042;14.432;2023-08-30T05:18:48;3.60;;;2.25;;
78716;SDS011;68045;50.042;14.432;2023-08-30T05:22:49;3.67;;;2.45;;
78716;SDS011;68045;50.042;14.432;2023-08-30T05:26:50;4.40;;;2.15;;
78716;SDS011;68045;50.042;14.432;2023-08-30T05:35:04;4.85;;;2.10;;
78716;SDS011;68045;50.042;14.432;2023-08-30T05:39:43;3.55;;;2.30;;
78716;SDS011;68045;50.042;14.432;2023-08-30T05:43:45;3.28;;;2.22;;
78716;SDS011;68045;50.042;14.432;2023-08-30T05:47:45;6.47;;;2.20;;
78716;SDS011;68045;50.042;14.432;2023-08-30T05:51:47;4.45;;;2.63;;
78716;SDS011;68045;50.042;14.432;2023-08-30T05:55:48;4.20;;;2.50;;
78716;SDS011;68045;50.042;14.432;2023-08-30T05:59:49;5.13;;;2.45;;
78716;SDS011;68045;50.042;14.432;2023-08-30T06:03:50;4.57;;;2.50;;
78716;SDS011;68045;50.042;14.432;2023-08-30T06:07:51;4.47;;;2.70;;
78716;SDS011;68045;50.042;14.432;2023-08-30T06:11:52;4.15;;;2.50;;
78716;SDS011;68045;50.042;14.432;2023-08-30T06:15:53;3.92;;;2.50;;
78716;SDS011;68045;50.042;14.432;2023-08-30T06:19:54;4.30;;;2.50;;
78716;SDS011;68045;50.042;14.432;2023-08-30T06:23:55;3.78;;;2.67;;
78716;SDS011;68045;50.042;14.432;2023-08-30T06:27:57;6.25;;;2.72;;
78716;SDS011;68045;50.042;14.432;2023-08-30T06:31:59;4.20;;;2.80;;
78716;SDS011;68045;50.042;14.432;2023-08-30T06:36:00;5.45;;;2.75;;
78716;SDS011;68045;50.042;14.432;2023-08-30T06:40:00;4.88;;;3.05;;
78716;SDS011;68045;50.042;14.432;2023-08-30T06:44:04;7.90;;;2.72;;
78716;SDS011;68045;50.042;14.432;2023-08-30T06:48:05;4.68;;;3.00;;
78716;SDS011;68045;50.042;14.432;2023-08-30T06:52:07;3.50;;;2.38;;
78716;SDS011;68045;50.042;14.432;2023-08-30T06:56:08;4.82;;;3.00;;
78716;SDS011;68045;50.042;14.432;2023-08-30T07:00:09;4.57;;;3.13;;
78716;SDS011;68045;50.042;14.432;2023-08-30T07:04:10;6.70;;;3.35;;
78716;SDS011;68045;50.042;14.432;2023-08-30T07:08:15;4.28;;;2.88;;
78716;SDS011;68045;50.042;14.432;2023-08-30T07:12:16;7.10;;;2.97;;
78716;SDS011;68045;50.042;14.432;2023-08-30T07:16:17;8.38;;;3.53;;
78716;SDS011;68045;50.042;14.432;2023-08-30T07:20:18;6.22;;;3.50;;
78716;SDS011;68045;50.042;14.432;2023-08-30T07:24:19;4.90;;;3.45;;
78716;SDS011;68045;50.042;14.432;2023-08-30T07:28:20;4.82;;;3.28;;
78716;SDS011;68045;50.042;14.432;2023-08-30T07:32:21;6.03;;;3.45;;
78716;SDS011;68045;50.042;14.432;2023-08-30T07:36:21;5.10;;;3.47;;
78716;SDS011;68045;50.042;14.432;2023-08-30T07:40:22;7.97;;;3.60;;
78716;SDS011;68045;50.042;14.432;2023-08-30T07:44:28;6.03;;;3.80;;
78716;SDS011;68045;50.042;14.432;2023-08-30T07:48:29;6.55;;;3.70;;
78716;SDS011;68045;50.042;14.432;2023-08-30T07:52:30;5.68;;;3.95;;
78716;SDS011;68045;50.042;14.432;2023-08-30T07:56:31;5.18;;;3.92;;
78716;SDS011;68045;50.042;14.432;2023-08-30T08:00:32;8.38;;;4.32;;
78716;SDS011;68045;50.042;14.432;2023-08-30T08:04:36;5.22;;;3.63;;
78716;SDS011;68045;50.042;14.432;2023-08-30T08:08:37;5.65;;;3.70;;
78716;SDS011;68045;50.042;14.432;2023-08-30T08:12:38;6.68;;;3.70;;
78716;SDS011;68045;50.042;14.432;2023-08-30T08:16:39;8.40;;;3.60;;
78716;SDS011;68045;50.042;14.432;2023-08-30T08:20:40;7.55;;;3.92;;
78716;SDS011;68045;50.042;14.432;2023-08-30T08:24:41;5.50;;;3.60;;
78716;SDS011;68045;50.042;14.432;2023-08-30T08:28:44;6.88;;;4.22;;
78716;SDS011;68045;50.042;14.432;2023-08-30T08:32:46;7.97;;;4.18;;
78716;SDS011;68045;50.042;14.432;2023-08-30T08:36:50;8.32;;;4.50;;
78716;SDS011;68045;50.042;14.432;2023-08-30T08:40:53;5.50;;;3.97;;
78716;SDS011;68045;50.042;14.432;2023-08-30T08:45:03;6.70;;;4.88;;
78716;SDS011;68045;50.042;14.432;2023-08-30T08:49:08;9.18;;;4.57;;
78716;SDS011;68045;50.042;14.432;2023-08-30T08:53:11;8.02;;;4.70;;
78716;SDS011;68045;50.042;14.432;2023-08-30T08:57:13;6.78;;;4.63;;
78716;SDS011;68045;50.042;14.432;2023-08-30T09:01:14;6.03;;;4.53;;
78716;SDS011;68045;50.042;14.432;2023-08-30T09:05:15;6.85;;;4.95;;
78716;SDS011;68045;50.042;14.432;2023-08-30T09:13:18;6.68;;;5.15;;
78716;SDS011;68045;50.042;14.432;2023-08-30T09:17:21;6.05;;;4.35;;
78716;SDS011;68045;50.042;14.432;2023-08-30T09:21:22;9.10;;;5.38;;
78716;SDS011;68045;50.042;14.432;2023-08-30T09:25:24;7.05;;;4.47;;
78716;SDS011;68045;50.042;14.432;2023-08-30T09:29:25;6.53;;;4.70;;
78716;SDS011;68045;50.042;14.432;2023-08-30T09:33:30;10.30;;;5.18;;
78716;SDS011;68045;50.042;14.432;2023-08-30T09:37:34;5.55;;;4.50;;
78716;SDS011;68045;50.042;14.432;2023-08-30T09:41:35;8.55;;;5.20;;
78716;SDS011;68045;50.042;14.432;2023-08-30T09:45:46;7.80;;;5.03;;
78716;SDS011;68045;50.042;14.432;2023-08-30T09:49:47;8.68;;;4.65;;
78716;SDS011;68045;50.042;14.432;2023-08-30T09:53:51;7.82;;;4.95;;
78716;SDS011;68045;50.042;14.432;2023-08-30T09:57:58;7.57;;;5.18;;
78716;SDS011;68045;50.042;14.432;2023-08-30T10:02:00;6.45;;;5.00;;
78716;SDS011;68045;50.042;14.432;2023-08-30T10:06:01;7.35;;;4.85;;
78716;SDS011;68045;50.042;14.432;2023-08-30T10:10:05;5.88;;;5.00;;
78716;SDS011;68045;50.042;14.432;2023-08-30T10:14:08;7.45;;;4.75;;
78716;SDS011;68045;50.042;14.432;2023-08-30T10:18:09;5.78;;;4.28;;
78716;SDS011;68045;50.042;14.432;2023-08-30T10:22:12;5.43;;;4.03;;
78716;SDS011;68045;50.042;14.432;2023-08-30T10:26:16;7.47;;;4.28;;
78716;SDS011;68045;50.042;14.432;2023-08-30T10:30:18;7.53;;;4.45;;
78716;SDS011;68045;50.042;14.432;2023-08-30T10:34:21;5.75;;;4.53;;
78716;SDS011;68045;50.042;14.432;2023-08-30T10:38:25;7.15;;;4.18;;
78716;SDS011;68045;50.042;14.432;2023-08-30T10:42:29;5.70;;;4.43;;
78716;SDS011;68045;50.042;14.432;2023-08-30T10:46:31;5.55;;;4.13;;
78716;SDS011;68045;50.042;14.432;2023-08-30T10:50:33;5.90;;;4.22;;
78716;SDS011;68045;50.042;14.432;2023-08-30T10:54:38;4.57;;;3.78;;
78716;SDS011;68045;50.042;14.432;2023-08-30T10:58:43;4.85;;;3.92;;
78716;SDS011;68045;50.042;14.432;2023-08-30T11:02:45;5.53;;;4.00;;
78716;SDS011;68045;50.042;14.432;2023-08-30T11:06:48;5.22;;;3.90;;
78716;SDS011;68045;50.042;14.432;2023-08-30T11:10:59;6.05;;;4.15;;
78716;SDS011;68045;50.042;14.432;2023-08-30T11:15:06;4.55;;;3.80;;
78716;SDS011;68045;50.042;14.432;2023-08-30T11:19:08;6.20;;;4.13;;
78716;SDS011;68045;50.042;14.432;2023-08-30T11:23:10;4.70;;;3.92;;
78716;SDS011;68045;50.042;14.432;2023-08-30T11:27:11;6.30;;;4.10;;
78716;SDS011;68045;50.042;14.432;2023-08-30T11:31:21;6.53;;;4.07;;
78716;SDS011;68045;50.042;14.432;2023-08-30T11:35:23;5.10;;;4.05;;
78716;SDS011;68045;50.042;14.432;2023-08-30T11:39:26;4.25;;;3.65;;
78716;SDS011;68045;50.042;14.432;2023-08-30T11:43:28;5.68;;;4.10;;
78716;SDS011;68045;50.042;14.432;2023-08-30T11:47:30;4.65;;;4.18;;
78716;SDS011;68045;50.042;14.432;2023-08-30T11:51:30;6.38;;;4.97;;
78716;SDS011;68045;50.042;14.432;2023-08-30T11:55:33;6.47;;;5.07;;
78716;SDS011;68045;50.042;14.432;2023-08-30T11:59:35;5.47;;;4.82;;
78716;SDS011;68045;50.042;14.432;2023-08-30T12:03:38;6.82;;;5.03;;
78716;SDS011;68045;50.042;14.432;2023-08-30T12:07:40;6.40;;;5.07;;
78716;SDS011;68045;50.042;14.432;2023-08-30T12:11:40;5.63;;;4.57;;
78716;SDS011;68045;50.042;14.432;2023-08-30T12:15:42;7.82;;;5.32;;
78716;SDS011;68045;50.042;14.432;2023-08-30T12:19:43;6.80;;;4.85;;
78716;SDS011;68045;50.042;14.432;2023-08-30T12:23:44;7.32;;;5.25;;
78716;SDS011;68045;50.042;14.432;2023-08-30T12:27:45;5.65;;;4.85;;
78716;SDS011;68045;50.042;14.432;2023-08-30T12:31:46;5.35;;;4.65;;
78716;SDS011;68045;50.042;14.432;2023-08-30T12:35:47;7.05;;;4.88;;
78716;SDS011;68045;50.042;14.432;2023-08-30T12:39:50;6.57;;;5.05;;
78716;SDS011;68045;50.042;14.432;2023-08-30T12:43:50;7.22;;;5.18;;
78716;SDS011;68045;50.042;14.432;2023-08-30T12:47:51;5.35;;;4.28;;
78716;SDS011;68045;50.042;14.432;2023-08-30T12:51:52;6.72;;;4.68;;
78716;SDS011;68045;50.042;14.432;2023-08-30T12:55:53;5.45;;;4.45;;
78716;SDS011;68045;50.042;14.432;2023-08-30T12:59:54;5.72;;;4.05;;
78716;SDS011;68045;50.042;14.432;2023-08-30T13:03:55;5.82;;;4.90;;
78716;SDS011;68045;50.042;14.432;2023-08-30T13:07:56;5.95;;;4.88;;
78716;SDS011;68045;50.042;14.432;2023-08-30T13:11:57;6.55;;;4.95;;
78716;SDS011;68045;50.042;14.432;2023-08-30T13:15:57;5.80;;;4.65;;
78716;SDS011;68045;50.042;14.432;2023-08-30T13:19:58;9.13;;;4.40;;
78716;SDS011;68045;50.042;14.432;2023-08-30T13:24:00;5.50;;;4.00;;
78716;SDS011;68045;50.042;14.432;2023-08-30T13:28:02;6.28;;;4.25;;
78716;SDS011;68045;50.042;14.432;2023-08-30T13:32:04;5.68;;;4.53;;
78716;SDS011;68045;50.042;14.432;2023-08-30T13:36:05;6.20;;;4.90;;
78716;SDS011;68045;50.042;14.432;2023-08-30T13:40:07;5.18;;;4.43;;
78716;SDS011;68045;50.042;14.432;2023-08-30T13:44:08;5.18;;;4.38;;
78716;SDS011;68045;50.042;14.432;2023-08-30T13:48:09;7.00;;;4.65;;
78716;SDS011;68045;50.042;14.432;2023-08-30T13:52:10;7.25;;;4.85;;
78716;SDS011;68045;50.042;14.432;2023-08-30T13:56:12;8.10;;;5.13;;
78716;SDS011;68045;50.042;14.432;2023-08-30T14:00:13;6.13;;;5.53;;
78716;SDS011;68045;50.042;14.432;2023-08-30T14:04:14;6.28;;;5.28;;
78716;SDS011;68045;50.042;14.432;2023-08-30T14:08:15;6.05;;;5.25;;
78716;SDS011;68045;50.042;14.432;2023-08-30T14:12:16;6.63;;;5.40;;
78716;SDS011;68045;50.042;14.432;2023-08-30T14:16:17;7.15;;;6.32;;
78716;SDS011;68045;50.042;14.432;2023-08-30T14:20:18;6.88;;;5.82;;
78716;SDS011;68045;50.042;14.432;2023-08-30T14:24:19;7.80;;;5.72;;
78716;SDS011;68045;50.042;14.432;2023-08-30T14:28:20;7.30;;;6.32;;
78716;SDS011;68045;50.042;14.432;2023-08-30T14:32:21;8.27;;;6.43;;
78716;SDS011;68045;50.042;14.432;2023-08-30T14:36:21;7.45;;;5.88;;
78716;SDS011;68045;50.042;14.432;2023-08-30T14:40:22;9.50;;;7.03;;
78716;SDS011;68045;50.042;14.432;2023-08-30T14:44:24;8.48;;;6.43;;
78716;SDS011;68045;50.042;14.432;2023-08-30T14:48:26;7.63;;;6.75;;
78716;SDS011;68045;50.042;14.432;2023-08-30T14:52:27;7.43;;;6.63;;
78716;SDS011;68045;50.042;14.432;2023-08-30T14:56:27;8.60;;;6.40;;
78716;SDS011;68045;50.042;14.432;2023-08-30T15:00:28;9.20;;;7.10;;
78716;SDS011;68045;50.042;14.432;2023-08-30T15:04:29;10.98;;;7.28;;
78716;SDS011;68045;50.042;14.432;2023-08-30T15:08:30;9.45;;;7.38;;
78716;SDS011;68045;50.042;14.432;2023-08-30T15:12:31;9.73;;;7.13;;
78716;SDS011;68045;50.042;14.432;2023-08-30T15:16:31;9.73;;;6.60;;
78716;SDS011;68045;50.042;14.432;2023-08-30T15:20:32;8.50;;;7.07;;
78716;SDS011;68045;50.042;14.432;2023-08-30T15:24:34;8.43;;;6.60;;
78716;SDS011;68045;50.042;14.432;2023-08-30T15:28:35;9.02;;;6.25;;
78716;SDS011;68045;50.042;14.432;2023-08-30T15:32:36;7.28;;;6.50;;
78716;SDS011;68045;50.042;14.432;2023-08-30T15:36:37;8.55;;;6.88;;
78716;SDS011;68045;50.042;14.432;2023-08-30T15:40:37;7.80;;;6.13;;
78716;SDS011;68045;50.042;14.432;2023-08-30T15:44:38;6.68;;;5.65;;
78716;SDS011;68045;50.042;14.432;2023-08-30T15:48:40;7.20;;;5.88;;
78716;SDS011;68045;50.042;14.432;2023-08-30T15:52:41;7.45;;;5.88;;
78716;SDS011;68045;50.042;14.432;2023-08-30T15:56:41;8.55;;;5.65;;
78716;SDS011;68045;50.042;14.432;2023-08-30T16:00:45;7.70;;;6.45;;
78716;SDS011;68045;50.042;14.432;2023-08-30T16:04:49;7.47;;;5.50;;
78716;SDS011;68045;50.042;14.432;2023-08-30T16:08:51;8.88;;;6.53;;
78716;SDS011;68045;50.042;14.432;2023-08-30T16:16:52;9.27;;;6.75;;
78716;SDS011;68045;50.042;14.432;2023-08-30T16:20:53;10.10;;;6.18;;
78716;SDS011;68045;50.042;14.432;2023-08-30T16:24:54;9.95;;;6.07;;
78716;SDS011;68045;50.042;14.432;2023-08-30T16:28:54;10.65;;;6.07;;
78716;SDS011;68045;50.042;14.432;2023-08-30T16:32:55;9.30;;;6.22;;
78716;SDS011;68045;50.042;14.432;2023-08-30T16:36:56;10.10;;;5.65;;
78716;SDS011;68045;50.042;14.432;2023-08-30T16:40:57;11.95;;;5.55;;
78716;SDS011;68045;50.042;14.432;2023-08-30T16:45:04;7.00;;;5.45;;
78716;SDS011;68045;50.042;14.432;2023-08-30T16:49:05;7.93;;;5.63;;
78716;SDS011;68045;50.042;14.432;2023-08-30T16:53:10;8.38;;;5.55;;
78716;SDS011;68045;50.042;14.432;2023-08-30T16:57:10;6.47;;;4.95;;
78716;SDS011;68045;50.042;14.432;2023-08-30T17:01:12;8.05;;;4.97;;
78716;SDS011;68045;50.042;14.432;2023-08-30T17:05:12;7.95;;;5.68;;
78716;SDS011;68045;50.042;14.432;2023-08-30T17:09:13;7.43;;;5.60;;
78716;SDS011;68045;50.042;14.432;2023-08-30T17:13:14;13.43;;;5.72;;
78716;SDS011;68045;50.042;14.432;2023-08-30T17:17:15;7.47;;;5.53;;
78716;SDS011;68045;50.042;14.432;2023-08-30T17:21:16;9.55;;;5.25;;
78716;SDS011;68045;50.042;14.432;2023-08-30T17:25:19;7.07;;;5.70;;
78716;SDS011;68045;50.042;14.432;2023-08-30T17:29:20;10.18;;;6.25;;
78716;SDS011;68045;50.042;14.432;2023-08-30T17:33:21;10.10;;;5.82;;
78716;SDS011;68045;50.042;14.432;2023-08-30T17:37:22;9.40;;;6.15;;
78716;SDS011;68045;50.042;14.432;2023-08-30T17:41:23;9.07;;;6.28;;
78716;SDS011;68045;50.042;14.432;2023-08-30T17:45:24;7.63;;;5.90;;
78716;SDS011;68045;50.042;14.432;2023-08-30T17:49:24;10.32;;;6.15;;
78716;SDS011;68045;50.042;14.432;2023-08-30T17:53:25;9.15;;;6.53;;
78716;SDS011;68045;50.042;14.432;2023-08-30T17:57:26;10.07;;;6.13;;
78716;SDS011;68045;50.042;14.432;2023-08-30T18:01:27;13.57;;;6.38;;
78716;SDS011;68045;50.042;14.432;2023-08-30T18:05:29;7.03;;;5.50;;
78716;SDS011;68045;50.042;14.432;2023-08-30T18:09:30;9.50;;;6.45;;
78716;SDS011;68045;50.042;14.432;2023-08-30T18:13:34;8.98;;;6.40;;
78716;SDS011;68045;50.042;14.432;2023-08-30T18:17:34;10.75;;;6.95;;
78716;SDS011;68045;50.042;14.432;2023-08-30T18:21:35;8.68;;;6.78;;
78716;SDS011;68045;50.042;14.432;2023-08-30T18:25:36;8.27;;;6.47;;
78716;SDS011;68045;50.042;14.432;2023-08-30T18:29:38;10.35;;;7.15;;
78716;SDS011;68045;50.042;14.432;2023-08-30T18:33:42;9.40;;;7.22;;
78716;SDS011;68045;50.042;14.432;2023-08-30T18:37:44;11.07;;;6.95;;
78716;SDS011;68045;50.042;14.432;2023-08-30T18:41:45;11.63;;;7.10;;
78716;SDS011;68045;50.042;14.432;2023-08-30T18:45:47;9.32;;;6.65;;
78716;SDS011;68045;50.042;14.432;2023-08-30T18:49:48;10.93;;;6.85;;
78716;SDS011;68045;50.042;14.432;2023-08-30T18:53:49;12.27;;;6.75;;
78716;SDS011;68045;50.042;14.432;2023-08-30T18:57:50;8.93;;;6.80;;
78716;SDS011;68045;50.042;14.432;2023-08-30T19:01:51;10.73;;;6.88;;
78716;SDS011;68045;50.042;14.432;2023-08-30T19:05:52;10.57;;;7.40;;
78716;SDS011;68045;50.042;14.432;2023-08-30T19:09:53;12.50;;;7.75;;
78716;SDS011;68045;50.042;14.432;2023-08-30T19:13:54;11.63;;;7.38;;
78716;SDS011;68045;50.042;14.432;2023-08-30T19:17:55;11.00;;;8.77;;
78716;SDS011;68045;50.042;14.432;2023-08-30T19:21:56;10.50;;;7.50;;
78716;SDS011;68045;50.042;14.432;2023-08-30T19:25:57;13.15;;;8.77;;
78716;SDS011;68045;50.042;14.432;2023-08-30T19:29:58;15.30;;;8.55;;
78716;SDS011;68045;50.042;14.432;2023-08-30T19:33:59;13.68;;;9.15;;
78716;SDS011;68045;50.042;14.432;2023-08-30T19:38:00;18.10;;;10.02;;
78716;SDS011;68045;50.042;14.432;2023-08-30T19:42:01;17.80;;;10.68;;
78716;SDS011;68045;50.042;14.432;2023-08-30T19:46:03;13.57;;;9.02;;
78716;SDS011;68045;50.042;14.432;2023-08-30T19:54:07;11.05;;;8.43;;
78716;SDS011;68045;50.042;14.432;2023-08-30T19:58:07;11.68;;;7.20;;
78716;SDS011;68045;50.042;14.432;2023-08-30T20:02:09;10.60;;;7.63;;
78716;SDS011;68045;50.042;14.432;2023-08-30T20:06:11;12.93;;;8.50;;
78716;SDS011;68045;50.042;14.432;2023-08-30T20:10:12;17.20;;;9.45;;
78716;SDS011;68045;50.042;14.432;2023-08-30T20:14:13;20.92;;;9.95;;
78716;SDS011;68045;50.042;14.432;2023-08-30T20:18:19;13.45;;;9.57;;
78716;SDS011;68045;50.042;14.432;2023-08-30T20:22:23;15.02;;;10.95;;
78716;SDS011;68045;50.042;14.432;2023-08-30T20:26:25;12.68;;;9.20;;
78716;SDS011;68045;50.042;14.432;2023-08-30T20:30:26;14.55;;;10.13;;
78716;SDS011;68045;50.042;14.432;2023-08-30T20:34:27;20.92;;;11.98;;
78716;SDS011;68045;50.042;14.432;2023-08-30T20:42:29;16.98;;;10.45;;
78716;SDS011;68045;50.042;14.432;2023-08-30T20:46:30;15.63;;;10.73;;
78716;SDS011;68045;50.042;14.432;2023-08-30T20:50:34;15.00;;;9.90;;
78716;SDS011;68045;50.042;14.432;2023-08-30T20:54:35;14.57;;;9.82;;
78716;SDS011;68045;50.042;14.432;2023-08-30T20:58:37;17.77;;;10.30;;
78716;SDS011;68045;50.042;14.432;2023-08-30T21:02:47;14.95;;;10.02;;
78716;SDS011;68045;50.042;14.432;2023-08-30T21:06:50;15.07;;;10.35;;
78716;SDS011;68045;50.042;14.432;2023-08-30T21:10:50;11.00;;;8.27;;
78716;SDS011;68045;50.042;14.432;2023-08-30T21:14:52;14.80;;;8.88;;
78716;SDS011;68045;50.042;14.432;2023-08-30T21:18:52;15.10;;;8.40;;
78716;SDS011;68045;50.042;14.432;2023-08-30T21:22:54;11.48;;;8.05;;
78716;SDS011;68045;50.042;14.432;2023-08-30T21:26:55;11.30;;;8.60;;
78716;SDS011;68045;50.042;14.432;2023-08-30T21:30:56;11.38;;;8.95;;
78716;SDS011;68045;50.042;14.432;2023-08-30T21:34:57;11.88;;;7.90;;
78716;SDS011;68045;50.042;14.432;2023-08-30T21:38:58;11.98;;;7.00;;
78716;SDS011;68045;50.042;14.432;2023-08-30T21:42:59;12.65;;;7.25;;
78716;SDS011;68045;50.042;14.432;2023-08-30T21:47:00;10.05;;;7.57;;
78716;SDS011;68045;50.042;14.432;2023-08-30T21:51:01;11.27;;;8.57;;
78716;SDS011;68045;50.042;14.432;2023-08-30T21:55:02;12.13;;;8.63;;
78716;SDS011;68045;50.042;14.432;2023-08-30T21:59:08;12.77;;;7.55;;
78716;SDS011;68045;50.042;14.432;2023-08-30T22:03:09;11.48;;;7.43;;
78716;SDS011;68045;50.042;14.432;2023-08-30T22:07:09;9.88;;;7.32;;
78716;SDS011;68045;50.042;14.432;2023-08-30T22:11:10;10.63;;;8.23;;
78716;SDS011;68045;50.042;14.432;2023-08-30T22:15:11;12.73;;;9.02;;
78716;SDS011;68045;50.042;14.432;2023-08-30T22:19:14;10.60;;;7.97;;
78716;SDS011;68045;50.042;14.432;2023-08-30T22:23:15;10.93;;;7.97;;
78716;SDS011;68045;50.042;14.432;2023-08-30T22:27:15;9.93;;;7.55;;
78716;SDS011;68045;50.042;14.432;2023-08-30T22:31:17;11.90;;;8.20;;
78716;SDS011;68045;50.042;14.432;2023-08-30T22:35:18;10.63;;;7.97;;
78716;SDS011;68045;50.042;14.432;2023-08-30T22:39:19;7.53;;;5.93;;
78716;SDS011;68045;50.042;14.432;2023-08-30T22:43:21;9.98;;;6.75;;
78716;SDS011;68045;50.042;14.432;2023-08-30T22:47:22;10.18;;;6.88;;
78716;SDS011;68045;50.042;14.432;2023-08-30T22:51:22;8.88;;;5.95;;
78716;SDS011;68045;50.042;14.432;2023-08-30T22:59:27;9.05;;;6.30;;
78716;SDS011;68045;50.042;14.432;2023-08-30T23:03:28;8.27;;;6.22;;
78716;SDS011;68045;50.042;14.432;2023-08-30T23:07:30;10.27;;;6.80;;
78716;SDS011;68045;50.042;14.432;2023-08-30T23:11:31;7.88;;;6.38;;
78716;SDS011;68045;50.042;14.432;2023-08-30T23:15:32;9.68;;;5.88;;
78716;SDS011;68045;50.042;14.432;2023-08-30T23:19:33;9.55;;;6.15;;
78716;SDS011;68045;50.042;14.432;2023-08-30T23:23:33;8.88;;;6.10;;
78716;SDS011;68045;50.042;14.432;2023-08-30T23:27:37;8.93;;;5.47;;
78716;SDS011;68045;50.042;14.432;2023-08-30T23:31:38;8.52;;;5.90;;
78716;SDS011;68045;50.042;14.432;2023-08-30T23:35:39;7.93;;;5.55;;
78716;SDS011;68045;50.042;14.432;2023-08-30T23:39:40;7.22;;;5.10;;
78716;SDS011;68045;50.042;14.432;2023-08-30T23:43:41;8.75;;;5.95;;
78716;SDS011;68045;50.042;14.432;2023-08-30T23:47:42;11.93;;;5.68;;
78716;SDS011;68045;50.042;14.432;2023-08-30T23:51:43;8.18;;;6.25;;
78716;SDS011;68045;50.042;14.432;2023-08-30T23:55:47;8.68;;;5.75;;
78716;SDS011;68045;50.042;14.432;2023-08-30T23:59:48;8.23;;;5.82;;
